Date,TemperatureHighF,TemperatureAvgF,TemperatureLowF,DewpointHighF,DewpointAvgF,DewpointLowF,HumidityHigh,HumidityAvg,HumidityLow,PressureMaxIn,PressureMinIn,WindSpeedMaxMPH,WindSpeedAvgMPH,GustSpeedMaxMPH,PrecipitationSumIn
2013-2-1,29,17,9,27,10,6,94,75,61,30.43,29.83,8,2,17,0.00
2013-2-2,30,20,8,29,17,5,95,88,55,30.41,30.00,2,0,6,0.01
2013-2-3,31,28,25,29,25,20,95,87,80,30.11,29.87,5,1,15,0.00
2013-2-4,39,30,23,35,24,18,96,77,56,30.14,29.86,3,0,11,0.15
2013-2-5,42,38,36,40,37,35,98,96,91,29.93,29.84,2,0,9,0.36
2013-2-6,41,36,29,37,32,28,98,85,69,30.28,29.93,6,0,16,0.00
2013-2-7,56,41,29,40,34,28,97,78,44,30.28,29.93,4,1,10,0.00
2013-2-8,46,41,31,42,35,25,95,79,71,30.22,29.80,7,2,19,0.07
2013-2-9,40,32,28,25,21,19,80,64,43,30.41,30.22,4,1,10,0.00
2013-2-10,62,42,23,41,26,19,94,62,23,30.32,29.92,6,1,12,0.04
2013-2-11,65,56,46,52,38,24,81,54,26,29.96,29.73,7,3,23,0.01
2013-2-12,55,44,36,29,26,22,69,51,30,30.12,29.88,4,1,15,0.00
2013-2-13,44,36,32,37,32,26,96,86,57,29.91,29.63,3,0,7,0.35
2013-2-14,50,40,32,35,31,28,93,72,47,29.99,29.89,4,1,10,0.00
2013-2-15,42,36,33,34,33,30,96,89,70,30.06,29.92,2,0,9,0.14
2013-2-16,33,29,24,32,24,15,96,83,66,30.05,29.95,6,1,15,0.00
2013-2-17,26,21,16,16,11,4,87,67,54,30.31,30.00,6,2,15,0.00
2013-2-18,56,34,12,36,22,9,92,64,37,30.35,29.90,5,1,12,0.02
2013-2-19,50,43,31,42,31,21,88,63,40,29.99,29.73,10,4,19,0.04
2013-2-20,34,28,21,22,17,12,78,64,46,30.28,29.99,5,3,16,0.00
2013-2-21,35,26,17,20,17,12,86,69,53,30.36,30.18,2,0,7,0.00
2013-2-22,58,43,30,43,35,20,92,75,58,30.22,29.93,4,1,11,0.01
2013-2-23,58,46,38,45,39,34,95,78,51,29.94,29.80,3,0,7,0.00
2013-2-24,46,37,28,34,28,21,93,71,43,30.16,29.85,8,2,17,0.01
2013-2-25,49,34,21,27,23,19,93,67,36,30.20,29.99,2,0,7,0.00
2013-2-26,55,43,29,44,37,25,89,77,59,30.00,29.48,7,2,17,0.15
2013-2-27,47,42,35,44,37,32,94,84,65,29.73,29.52,4,1,12,0.12
2013-2-28,35,34,33,34,32,30,96,91,84,29.85,29.68,3,1,12,0.04